Latest Weather Observations for Salmon Gums RS

IDW60801

Issued at 9:05 pm WST Tuesday 21 October 2014 (issued every 30 minutes, with the page automatically refreshed every 10 minutes)

About weather observations | Map of weather stations | Latest weather observations for WA | Other Formats
Station Details ID: 012071 Name: SALMON GUMS RES.STN. Lat: -32.99 Lon: 121.62 Height: 249.0 m
Data from the previous 72 hours. | See also: Recent months at Salmon Gums RS
Date/Time
WST
Temp
°C
App
Temp
°C
Dew
Point
Rel
Hum
%
Delta-T
°C
Wind Press
QNH
hPa
Press
MSL
hPa
Rain
since 9 am
mm
Dir
 
Spd
km/h
Gust
km/h
Spd
kts
Gust
kts
21/09:00pm 13.2 12.1 11.8 91 0.8 SE 9 13 5 7 - - 0.0
21/08:30pm 13.5 12.3 11.7 89 1.0 SE 9 15 5 8 - - 0.0
21/08:00pm 13.9 12.4 11.8 87 1.1 SE 11 15 6 8 - - 0.0
21/07:30pm 14.5 13.0 12.0 85 1.4 SSE 11 17 6 9 - - 0.0
21/07:00pm 15.0 13.6 12.1 83 1.6 SSE 11 17 6 9 - - 0.0
21/06:30pm 15.6 14.2 12.2 80 1.9 S 11 17 6 9 - - 0.0
21/06:00pm 16.7 14.6 12.5 76 2.3 SSE 15 24 8 13 - - 0.0
21/05:30pm 17.4 15.0 12.5 73 2.7 S 17 24 9 13 - - 0.0
21/05:00pm 19.1 16.4 12.8 67 3.6 S 19 26 10 14 - - 0.0
21/04:30pm 20.1 17.3 13.1 64 4.0 S 20 26 11 14 - - 0.0
21/04:00pm 19.8 17.1 13.5 67 3.6 S 20 26 11 14 - - 0.0
21/03:30pm 20.5 17.7 12.7 61 4.5 S 19 26 10 14 - - 0.0
21/03:00pm 21.3 18.9 11.3 53 5.6 S 15 20 8 11 - - 0.0
21/02:30pm 22.1 20.6 11.8 52 5.8 WSW 11 17 6 9 - - 0.0
21/02:00pm 20.9 19.0 11.8 56 5.1 S 13 19 7 10 - - 0.0
21/01:30pm 20.0 18.2 11.0 56 5.0 S 11 19 6 10 - - 0.0
21/01:00pm 21.0 18.9 12.4 58 4.9 SSW 15 22 8 12 - - 0.0
21/12:30pm 20.0 18.2 12.0 60 4.5 SSW 13 19 7 10 - - 0.0
21/12:00pm 19.1 18.0 11.9 63 4.0 SSW 9 15 5 8 - - 0.0
21/11:30am 18.6 17.2 12.1 66 3.6 WSW 11 19 6 10 - - 0.0
21/11:00am 18.4 17.1 12.6 69 3.3 SW 11 19 6 10 - - 0.0
21/10:30am 18.1 16.7 12.3 69 3.3 SW 11 17 6 9 - - 0.0
21/10:00am 17.9 17.1 13.0 73 2.8 W 9 15 5 8 - - 0.0
21/09:30am 17.1 16.5 13.6 80 2.0 WSW 9 15 5 8 - - 0.0
21/09:00am 15.7 14.9 12.8 83 1.6 WSW 9 15 5 8 - - 5.2
21/08:30am 15.0 13.8 12.9 87 1.2 W 11 19 6 10 - - 5.2
21/08:00am 13.9 12.5 12.3 90 0.9 W 11 17 6 9 - - 5.2
21/07:30am 14.0 13.1 12.7 92 0.7 WSW 9 15 5 8 - - 5.2
21/07:00am 13.3 12.0 12.4 94 0.5 WSW 11 17 6 9 - - 5.2
21/06:30am 13.0 11.9 12.1 94 0.5 W 9 15 5 8 - - 5.2
21/06:00am 12.8 11.7 11.9 94 0.5 W 9 15 5 8 - - 5.2
21/05:30am 12.8 12.1 11.9 94 0.5 W 7 11 4 6 - - 5.2
21/05:00am 12.8 12.0 11.7 93 0.6 W 7 13 4 7 - - 5.2
21/04:30am 12.9 11.8 11.8 93 0.6 WSW 9 15 5 8 - - 5.2
21/04:00am 13.1 12.0 11.8 92 0.7 W 9 15 5 8 - - 5.2
21/03:30am 13.2 12.4 11.8 91 0.8 W 7 15 4 8 - - 5.2
21/03:00am 13.2 11.3 11.8 91 0.8 WSW 13 19 7 10 - - 5.2
21/02:30am 13.3 12.2 11.9 91 0.8 WSW 9 17 5 9 - - 5.2
21/02:00am 13.4 11.9 12.0 91 0.8 W 11 19 6 10 - - 5.2
21/01:30am 13.7 11.9 12.1 90 0.9 W 13 24 7 13 - - 5.2
21/01:00am 13.9 12.5 12.1 89 1.0 WSW 11 20 6 11 - - 5.2
21/12:30am 14.1 13.2 12.5 90 0.9 W 9 17 5 9 - - 5.2
21/12:00am 14.2 12.9 12.6 90 0.9 WSW 11 17 6 9 - - 5.2
 
Date/Time
WST
Temp
°C
App
Temp
°C
Dew
Point
Rel
Hum
%
Delta-T
°C
Wind Press
QNH
hPa
Press
MSL
hPa
Rain
since 9 am
mm
Dir
 
Spd
km/h
Gust
km/h
Spd
kts
Gust
kts
20/11:30pm 14.5 13.4 13.2 92 0.7 WSW 11 20 6 11 - - 5.2
20/11:00pm 14.4 13.7 13.3 93 0.6 W 9 15 5 8 - - 5.0
20/10:30pm 14.5 14.8 13.4 93 0.6 W 4 6 2 3 - - 5.0
20/10:00pm 14.8 15.2 13.7 93 0.6 W 4 6 2 3 - - 5.0
20/09:30pm 15.0 15.5 13.9 93 0.6 SSW 4 6 2 3 - - 5.0
20/09:00pm 15.3 15.5 14.2 93 0.6 W 6 9 3 5 - - 4.8
20/08:30pm 15.2 15.4 14.1 93 0.6 WNW 6 7 3 4 - - 4.2
20/08:00pm 15.2 14.8 14.1 93 0.6 WNW 9 15 5 8 - - 4.2
20/07:30pm 15.2 13.5 13.7 91 0.9 WNW 15 22 8 12 - - 2.4
20/07:00pm 15.8 15.2 13.6 87 1.2 W 9 19 5 10 - - 0.4
20/06:30pm 16.0 15.7 13.3 84 1.5 W 7 17 4 9 - - 0.4
20/06:00pm 17.5 14.4 12.2 71 3.0 WSW 20 30 11 16 - - 0.2
20/05:30pm 19.4 16.4 10.7 57 4.8 WNW 17 28 9 15 - - 0.2
20/05:00pm 20.3 16.7 9.8 51 5.7 NW 19 30 10 16 - - 0.2
20/04:30pm 20.3 16.8 11.0 55 5.2 WNW 20 37 11 20 - - 0.2
20/04:00pm 21.2 18.0 11.2 53 5.6 WNW 19 37 10 20 - - 0.2
20/03:30pm 20.6 16.8 11.0 54 5.3 WNW 22 37 12 20 - - 0.2
20/03:00pm 20.3 17.6 11.8 58 4.8 WNW 17 26 9 14 - - 0.2
20/02:30pm 20.3 16.4 10.7 54 5.3 NW 22 33 12 18 - - 0.2
20/02:00pm 20.4 15.9 9.9 51 5.7 NW 24 44 13 24 - - 0.2
20/01:30pm 19.5 15.5 10.5 56 4.9 NW 22 33 12 18 - - 0.2
20/01:00pm 19.4 14.9 10.1 55 5.0 NW 24 33 13 18 - - 0.2
20/12:30pm 19.2 15.2 10.5 57 4.7 WNW 22 35 12 19 - - 0.2
20/12:00pm 19.4 15.8 10.4 56 4.9 WNW 20 30 11 16 - - 0.2
20/11:30am 18.7 15.1 10.5 59 4.5 WNW 20 32 11 17 - - 0.2
20/11:00am 17.5 13.7 9.9 61 4.1 WNW 20 28 11 15 - - 0.0
20/10:30am 19.5 16.0 10.8 57 4.8 NW 20 33 11 18 - - 0.0
20/10:00am 18.5 15.5 10.8 61 4.2 NW 17 24 9 13 - - 0.0
20/09:30am 17.6 14.2 11.4 67 3.4 NNW 20 32 11 17 - - 0.0
20/09:00am 18.0 15.6 12.5 70 3.1 NNW 17 28 9 15 - - 40.8
20/08:30am 16.7 13.7 12.0 74 2.6 NNW 19 28 10 15 - - 40.8
20/08:00am 16.1 13.7 12.5 79 2.0 N 17 22 9 12 - - 40.8
20/07:30am 14.9 12.3 12.0 83 1.6 N 17 26 9 14 - - 40.8
20/07:00am 13.4 11.2 12.0 91 0.8 N 15 24 8 13 - - 40.8
20/06:30am 13.3 12.0 12.5 95 0.4 N 11 17 6 9 - - 40.8
20/06:00am 12.2 10.9 11.4 95 0.4 N 9 15 5 8 - - 40.8
20/05:30am 12.0 10.7 11.2 95 0.4 NNE 9 15 5 8 - - 40.8
20/05:00am 12.0 10.7 11.2 95 0.4 NNW 9 17 5 9 - - 40.8
20/04:30am 12.0 11.2 11.1 94 0.5 N 6 7 3 4 - - 40.8
20/04:00am 12.5 11.3 11.6 94 0.5 N 9 13 5 7 - - 40.8
20/03:30am 12.8 10.9 11.9 94 0.5 NNW 13 20 7 11 - - 40.8
20/03:00am 13.0 11.9 12.1 94 0.5 NNW 9 17 5 9 - - 40.8
20/02:30am 13.1 10.9 12.0 93 0.6 N 15 22 8 12 - - 40.8
20/02:00am 13.0 11.1 11.9 93 0.6 N 13 20 7 11 - - 40.8
20/01:30am 12.9 11.4 11.8 93 0.6 N 11 19 6 10 - - 40.6
20/01:00am 13.0 10.7 11.9 93 0.6 N 15 24 8 13 - - 40.6
20/12:30am 13.0 11.1 11.7 92 0.7 N 13 20 7 11 - - 40.6
20/12:00am 13.4 11.2 12.1 92 0.7 NNE 15 20 8 11 - - 40.6
 
Date/Time
WST
Temp
°C
App
Temp
°C
Dew
Point
Rel
Hum
%
Delta-T
°C
Wind Press
QNH
hPa
Press
MSL
hPa
Rain
since 9 am
mm
Dir
 
Spd
km/h
Gust
km/h
Spd
kts
Gust
kts
19/11:30pm 13.5 11.3 12.1 91 0.8 NNE 15 30 8 16 - - 40.6
19/11:00pm 13.7 11.6 12.4 92 0.7 NNE 15 22 8 12 - - 40.6
19/10:30pm 13.6 12.2 12.3 92 0.7 N 11 19 6 10 - - 40.6
19/10:00pm 13.8 13.3 12.7 93 0.6 N 7 11 4 6 - - 40.6
19/09:30pm 13.7 12.8 12.6 93 0.6 NNW 9 13 5 7 - - 40.6
19/09:00pm 13.6 13.6 12.3 92 0.7 N 4 7 2 4 - - 40.6
19/08:30pm 13.9 12.6 12.6 92 0.7 NE 11 17 6 9 - - 40.6
19/08:00pm 14.2 13.4 12.9 92 0.7 NE 9 17 5 9 - - 40.6
19/07:30pm 14.2 11.6 13.1 93 0.6 E 19 28 10 15 - - 40.6
19/07:00pm 14.1 12.1 12.8 92 0.7 NE 15 22 8 12 - - 40.6
19/06:30pm 14.0 12.4 12.7 92 0.7 NE 13 20 7 11 - - 40.6
19/06:00pm 14.2 13.0 12.9 92 0.7 E 11 15 6 8 - - 40.6
19/05:30pm 14.4 11.3 13.3 93 0.6 SE 22 33 12 18 - - 40.4
19/05:00pm 14.5 14.0 13.7 95 0.5 SE 9 26 5 14 - - 39.2
19/04:30pm 14.7 14.5 13.7 94 0.6 E 7 13 4 7 - - 37.4
19/04:00pm 14.6 15.4 13.6 94 0.6 NNW 2 7 1 4 - - 33.8
19/03:30pm 14.6 14.6 13.6 94 0.6 N 6 9 3 5 - - 30.4
19/03:00pm 14.5 14.8 13.4 93 0.6 E 4 7 2 4 - - 26.0
19/02:30pm 14.7 13.8 13.6 93 0.6 ENE 11 19 6 10 - - 18.0
19/02:00pm 15.2 13.2 13.9 92 0.7 E 17 24 9 13 - - 13.6
19/01:30pm 15.7 13.9 14.4 92 0.7 E 17 22 9 12 - - 13.4
19/01:00pm 16.0 15.2 15.0 94 0.6 ESE 13 20 7 11 - - 13.4
19/12:30pm 14.6 14.6 13.6 94 0.6 S 6 9 3 5 - - 13.0
19/12:00pm 14.5 13.5 13.4 93 0.6 W 11 19 6 10 - - 10.6
19/11:30am 16.3 13.3 14.8 91 0.9 NW 24 39 13 21 - - 3.6
19/11:00am 17.1 17.4 16.1 94 0.6 E 9 15 5 8 - - 0.8
19/10:30am 16.4 15.3 15.4 94 0.6 ESE 15 24 8 13 - - 0.8
19/10:00am 16.0 14.9 15.2 95 0.5 ESE 15 22 8 12 - - 0.8
19/09:30am 15.1 12.7 14.3 95 0.5 ESE 20 28 11 15 - - 0.4
19/09:00am 14.9 13.0 14.1 95 0.5 ESE 17 24 9 13 - - 10.6
19/08:30am 14.3 11.6 13.5 95 0.4 ESE 20 30 11 16 - - 10.4
19/08:00am 14.0 11.4 13.2 95 0.4 ESE 19 30 10 16 - - 7.4
19/07:30am 14.0 11.2 13.2 95 0.4 E 20 33 11 18 - - 6.8
19/07:00am 13.4 10.4 12.6 95 0.4 ESE 20 30 11 16 - - 6.6
19/06:30am 13.3 9.9 12.5 95 0.4 SE 22 35 12 19 - - 6.6
19/06:00am 13.2 9.4 12.4 95 0.4 SE 24 37 13 20 - - 6.6
19/05:30am 13.2 9.8 12.4 95 0.4 SE 22 33 12 18 - - 6.6
19/05:00am 13.2 10.3 12.4 95 0.4 SE 19 26 10 14 - - 6.6
19/04:30am 13.2 10.3 12.3 94 0.5 SE 19 26 10 14 - - 6.6
19/04:00am 13.2 10.3 12.3 94 0.5 SE 19 26 10 14 - - 6.4
19/03:30am 13.1 10.0 12.2 94 0.5 SE 20 28 11 15 - - 6.2
19/03:00am 12.8 9.6 11.9 94 0.5 SE 20 30 11 16 - - 6.0
19/02:30am 12.6 9.5 11.7 94 0.5 SE 19 24 10 13 - - 6.0
19/02:00am 12.5 9.8 11.6 94 0.5 SSE 17 30 9 16 - - 6.0
19/01:30am 12.4 10.0 11.3 93 0.6 S 15 22 8 12 - - 6.0
19/01:00am 12.5 9.6 11.1 91 0.7 SSE 17 22 9 12 - - 5.8
19/12:30am 12.5 10.0 10.9 90 0.8 SSE 15 20 8 11 - - 5.6
19/12:00am 12.6 9.6 10.7 88 1.0 SSE 17 28 9 15 - - 5.6
 
Date/Time
WST
Temp
°C
App
Temp
°C
Dew
Point
Rel
Hum
%
Delta-T
°C
Wind Press
QNH
hPa
Press
MSL
hPa
Rain
since 9 am
mm
Dir
 
Spd
km/h
Gust
km/h
Spd
kts
Gust
kts
18/11:30pm 13.1 10.4 10.5 84 1.4 S 15 24 8 13 - - 5.6
18/11:00pm 13.2 10.1 10.2 82 1.6 SSE 17 22 9 12 - - 5.6
18/10:30pm 13.2 10.1 10.2 82 1.6 SE 17 26 9 14 - - 5.6
18/10:00pm 13.2 9.5 10.2 82 1.6 SSE 20 32 11 17 - - 5.6
18/09:30pm 13.2 9.5 10.0 81 1.7 SSE 20 28 11 15 - - 5.6

Other Formats:

Comma delimited format used in spreadsheet applications
http://www.bom.gov.au/fwo/IDW60801/IDW60801.95639.axf

JavaScript Object Notation format (JSON) in row-major order
http://www.bom.gov.au/fwo/IDW60801/IDW60801.95639.json